Time;durP1;ratioP1;P1;durP2;ratioP2;P2;SDS_P1;SDS_P2;PMS_P1;PMS_P2;Temp;Humidity;BMP_temperature;BMP_pressure;BME280_temperature;BME280_humidity;BME280_pressure;Samples;Min_cycle;Max_cycle;Signal;HPM_P1;HPM_P2
2022/01/26 00:00:05;;;;;;;40.63;26.53;;;2.30;99.90;;;;;;5073964;28;20209;-80
2022/01/26 00:05:49;;;;;;;36.87;25.27;;;2.20;99.90;;;;;;5073846;28;20244;-79
2022/01/26 00:08:22;;;;;;;37.97;26.37;;;2.10;99.90;;;;;;5074034;28;20622;-79
2022/01/26 00:10:49;;;;;;;40.53;27.77;;;2.10;99.90;;;;;;5073460;28;20248;-76
2022/01/26 00:13:16;;;;;;;33.03;23.67;;;2.20;99.90;;;;;;5073916;28;20210;-79
2022/01/26 00:15:43;;;;;;;32.70;24.93;;;2.10;99.90;;;;;;5073457;28;20202;-76
2022/01/26 00:18:10;;;;;;;35.80;26.13;;;2.20;99.90;;;;;;5074010;28;20205;-77
2022/01/26 00:20:42;;;;;;;33.73;24.10;;;2.10;99.90;;;;;;5073739;28;20209;-77
2022/01/26 00:23:32;;;;;;;35.27;25.07;;;2.10;99.90;;;;;;5073538;28;20651;-80
2022/01/26 00:26:06;;;;;;;29.53;21.60;;;2.00;99.90;;;;;;5073262;28;20201;-80
2022/01/26 00:28:46;;;;;;;33.63;23.63;;;2.00;99.90;;;;;;5073861;28;20202;-76
2022/01/26 00:32:00;;;;;;;33.00;24.80;;;2.00;99.90;;;;;;5073636;28;20201;-78
2022/01/26 00:38:35;;;;;;;37.47;22.57;;;2.00;99.90;;;;;;5072927;28;20208;-79
2022/01/26 00:39:56;;;;;;;28.00;21.13;;;1.90;99.90;;;;;;5072936;28;20576;-80
2022/01/26 00:42:26;;;;;;;29.53;22.40;;;1.90;99.90;;;;;;5073403;28;20206;-79
2022/01/26 00:44:53;;;;;;;30.40;22.70;;;1.90;99.90;;;;;;5072977;28;20237;-78
2022/01/26 00:47:20;;;;;;;31.77;22.40;;;1.90;99.90;;;;;;5073484;28;20260;-79
2022/01/26 00:49:47;;;;;;;32.40;22.03;;;1.80;99.90;;;;;;5072682;28;20259;-79
2022/01/26 00:52:24;;;;;;;29.37;20.77;;;1.90;99.90;;;;;;5073377;28;20205;-78
2022/01/26 00:54:51;;;;;;;27.60;19.63;;;1.90;99.90;;;;;;5072927;28;20272;-79
2022/01/26 00:57:18;;;;;;;29.80;22.57;;;1.80;99.90;;;;;;5073414;28;20202;-79
2022/01/26 00:59:47;;;;;;;28.80;22.20;;;1.80;99.90;;;;;;5072881;28;20213;-79
2022/01/26 01:02:14;;;;;;;27.73;20.83;;;1.80;99.90;;;;;;5072840;28;20260;-79
2022/01/26 01:04:41;;;;;;;30.43;22.23;;;1.70;99.90;;;;;;5072100;28;20233;-78
2022/01/26 01:07:15;;;;;;;32.50;21.10;;;1.70;99.90;;;;;;5073185;28;20279;-75
2022/01/26 01:09:42;;;;;;;37.37;24.63;;;1.70;99.90;;;;;;5072578;28;20568;-81
2022/01/26 01:12:11;;;;;;;31.77;20.77;;;1.70;99.90;;;;;;5073502;28;20673;-84
2022/01/26 01:14:39;;;;;;;29.40;21.83;;;1.70;91.90;;;;;;5073013;28;20248;-78
2022/01/26 01:17:11;;;;;;;29.60;21.17;;;1.70;99.90;;;;;;5072973;28;20606;-81
2022/01/26 01:19:42;;;;;;;30.93;22.37;;;1.70;99.90;;;;;;5072795;28;20661;-78
2022/01/26 01:22:40;;;;;;;33.07;22.80;;;1.70;99.90;;;;;;5073011;28;20662;-81
2022/01/26 01:30:44;;;;;;;25.17;17.50;;;1.60;99.90;;;;;;5065297;28;20332;-80
2022/01/26 01:33:18;;;;;;;28.27;20.70;;;1.60;99.90;;;;;;5072466;28;20263;-78
2022/01/26 01:35:47;;;;;;;30.30;23.30;;;1.60;99.90;;;;;;5072163;28;20202;-79
2022/01/26 01:38:16;;;;;;;27.10;21.00;;;1.60;99.90;;;;;;5072495;28;20202;-80
2022/01/26 01:40:46;;;;;;;29.00;20.70;;;1.50;99.90;;;;;;5071933;28;20212;-79
2022/01/26 01:43:16;;;;;;;24.23;19.37;;;1.50;99.90;;;;;;5072158;28;20234;-79
2022/01/26 01:45:47;;;;;;;30.10;20.37;;;1.50;99.90;;;;;;5071761;28;20621;-78
2022/01/26 01:48:19;;;;;;;29.20;20.03;;;1.50;99.90;;;;;;5072134;28;20205;-79
2022/01/26 01:50:47;;;;;;;27.50;19.73;;;1.50;96.10;;;;;;5071900;28;20213;-79
2022/01/26 01:53:16;;;;;;;27.07;18.00;;;1.40;99.90;;;;;;5072456;28;20292;-79
2022/01/26 01:55:47;;;;;;;35.40;21.43;;;1.40;99.90;;;;;;5071806;28;20202;-79
2022/01/26 01:58:14;;;;;;;33.43;20.77;;;1.40;99.90;;;;;;5071896;28;20202;-79
2022/01/26 02:00:41;;;;;;;32.17;20.77;;;1.40;99.90;;;;;;5071633;28;20205;-81
2022/01/26 02:03:09;;;;;;;31.60;22.67;;;1.40;99.90;;;;;;5072008;28;20619;-81
2022/01/26 02:05:37;;;;;;;31.23;24.50;;;1.30;66.70;;;;;;5072670;28;20632;-82
2022/01/26 02:08:05;;;;;;;32.43;24.57;;;1.40;99.90;;;;;;5072353;28;20259;-82
2022/01/26 02:10:33;;;;;;;31.83;23.70;;;1.40;99.90;;;;;;5072171;28;20275;-80
2022/01/26 02:13:04;;;;;;;38.13;25.47;;;1.30;99.90;;;;;;5071469;28;20237;-80
2022/01/26 02:15:39;;;;;;;33.80;23.47;;;1.30;99.90;;;;;;5080009;28;20233;-83
2022/01/26 02:18:20;;;;;;;32.33;23.70;;;1.20;99.90;;;;;;5073667;28;20205;-77
2022/01/26 02:21:14;;;;;;;33.93;23.37;;;1.20;99.90;;;;;;5071125;28;20209;-76
2022/01/26 02:51:34;;;;;;;43.47;23.97;;;1.10;99.90;;;;;;5071176;28;20275;-78
2022/01/26 02:57:00;;;;;;;31.10;23.57;;;1.10;99.90;;;;;;5070976;28;20206;-83
2022/01/26 02:59:51;;;;;;;34.60;22.27;;;1.10;99.90;;;;;;5070943;28;20209;-83
2022/01/26 03:02:30;;;;;;;31.07;24.37;;;1.10;99.90;;;;;;5072065;28;20209;-81
2022/01/26 03:05:00;;;;;;;33.63;23.47;;;1.00;99.90;;;;;;5071788;28;20249;-82
2022/01/26 03:07:38;;;;;;;33.43;22.50;;;1.00;99.90;;;;;;5071507;28;20477;-82
2022/01/26 03:10:15;;;;;;;30.70;23.03;;;1.00;99.90;;;;;;5071971;28;20284;-82
2022/01/26 03:12:48;;;;;;;29.83;21.77;;;1.00;99.90;;;;;;5070586;28;20205;-80
2022/01/26 03:15:20;;;;;;;30.57;20.57;;;1.00;99.90;;;;;;5070733;28;20198;-80
2022/01/26 03:18:06;;;;;;;29.17;20.03;;;1.00;99.90;;;;;;5070522;28;20206;-78
2022/01/26 03:20:35;;;;;;;27.33;19.17;;;1.00;99.90;;;;;;5071067;28;20662;-80
2022/01/26 03:28:42;;;;;;;27.37;18.67;;;0.90;99.90;;;;;;5075458;28;20204;-81
2022/01/26 03:33:58;;;;;;;22.67;15.77;;;0.70;99.90;;;;;;5074443;28;20209;-77
2022/01/26 03:36:29;;;;;;;24.43;16.27;;;0.70;99.90;;;;;;5074766;28;20260;-76
2022/01/26 03:39:05;;;;;;;19.03;16.20;;;0.60;99.90;;;;;;5074150;28;20323;-77
2022/01/26 03:41:43;;;;;;;23.30;15.63;;;0.50;99.90;;;;;;5075002;28;20201;-77
2022/01/26 03:44:11;;;;;;;23.17;15.33;;;0.60;99.90;;;;;;5074475;28;20239;-77
2022/01/26 03:46:38;;;;;;;19.37;14.40;;;0.70;1.00;;;;;;5074594;28;20351;-76
2022/01/26 03:49:06;;;;;;;19.73;14.93;;;0.80;99.90;;;;;;5074742;28;20209;-77
2022/01/26 03:51:34;;;;;;;19.63;15.97;;;0.90;99.90;;;;;;5074725;28;20662;-79
2022/01/26 03:54:02;;;;;;;24.23;16.03;;;0.80;99.90;;;;;;5073978;28;20681;-76
2022/01/26 03:56:29;;;;;;;20.90;15.03;;;0.70;99.90;;;;;;5074269;28;20251;-77
2022/01/26 03:58:57;;;;;;;18.67;14.47;;;0.70;99.90;;;;;;5074148;28;20248;-77
2022/01/26 04:01:24;;;;;;;19.73;15.33;;;0.80;99.90;;;;;;5074449;28;20209;-81
2022/01/26 04:03:51;;;;;;;21.77;16.60;;;0.80;99.90;;;;;;5074220;28;20226;-83
2022/01/26 04:06:18;;;;;;;22.53;15.93;;;0.80;99.90;;;;;;5075128;28;20206;-83
2022/01/26 04:08:46;;;;;;;23.77;17.93;;;0.80;99.90;;;;;;5075173;28;20293;-83
2022/01/26 04:11:29;;;;;;;27.93;18.57;;;0.80;99.90;;;;;;5074883;28;20224;-83
2022/01/26 04:13:59;;;;;;;28.83;19.50;;;0.70;99.90;;;;;;5074040;28;20799;-77
2022/01/26 04:16:26;;;;;;;25.30;18.27;;;0.70;99.90;;;;;;5073979;28;20210;-78
2022/01/26 04:18:55;;;;;;;27.20;18.67;;;0.70;99.90;;;;;;5073799;28;20198;-80
2022/01/26 04:21:30;;;;;;;32.67;19.73;;;0.70;99.90;;;;;;5074149;28;20202;-76
2022/01/26 04:24:01;;;;;;;28.40;22.27;;;0.70;99.90;;;;;;5073344;28;21119;-76
2022/01/26 04:26:33;;;;;;;27.67;19.93;;;0.60;99.90;;;;;;5073496;28;20259;-78
2022/01/26 04:29:06;;;;;;;28.20;20.17;;;0.60;99.90;;;;;;5073335;28;20202;-79
2022/01/26 04:31:33;;;;;;;20.90;17.53;;;0.60;99.90;;;;;;5073901;28;20205;-79
2022/01/26 04:34:00;;;;;;;32.47;20.87;;;0.50;99.90;;;;;;5073416;28;20259;-73
2022/01/26 04:36:33;;;;;;;30.47;19.00;;;0.60;99.90;;;;;;5073721;28;20656;-78
2022/01/26 04:39:04;;;;;;;27.37;19.33;;;0.60;99.90;;;;;;5072396;28;20214;-80
2022/01/26 04:41:36;;;;;;;30.87;18.80;;;0.60;99.90;;;;;;5073279;28;20670;-80
2022/01/26 04:44:10;;;;;;;26.70;17.87;;;0.60;99.90;;;;;;5073481;28;20283;-83
2022/01/26 04:46:37;;;;;;;24.80;18.10;;;0.60;99.90;;;;;;5073730;28;20260;-75
2022/01/26 04:49:04;;;;;;;28.57;17.93;;;0.50;99.90;;;;;;5073589;28;20202;-79
2022/01/26 04:51:31;;;;;;;25.17;16.80;;;0.60;99.90;;;;;;5073220;28;20613;-79
2022/01/26 04:53:59;;;;;;;26.77;18.50;;;0.60;99.90;;;;;;5072937;28;20202;-79
2022/01/26 04:56:26;;;;;;;31.43;18.73;;;0.60;99.90;;;;;;5072802;28;20202;-78
2022/01/26 04:58:53;;;;;;;31.03;20.23;;;0.60;99.90;;;;;;5085873;28;20206;-77
2022/01/26 05:01:22;;;;;;;22.13;16.97;;;0.60;99.90;;;;;;5079281;28;20205;-77
2022/01/26 05:03:49;;;;;;;25.93;18.33;;;0.60;99.90;;;;;;5091559;28;20202;-79
2022/01/26 05:06:16;;;;;;;27.70;18.17;;;0.60;99.90;;;;;;5093303;28;20263;-78
2022/01/26 05:08:43;;;;;;;28.17;17.87;;;0.50;99.90;;;;;;5092477;28;20211;-78
2022/01/26 05:11:14;;;;;;;25.10;18.13;;;0.50;99.90;;;;;;5093084;28;20271;-78
2022/01/26 05:13:41;;;;;;;33.13;18.20;;;0.40;99.90;;;;;;5092089;28;20292;-79
2022/01/26 05:16:09;;;;;;;26.03;18.10;;;0.10;99.90;;;;;;5091358;28;20256;-78
2022/01/26 05:18:38;;;;;;;25.00;18.90;;;0.20;99.90;;;;;;5092910;28;20205;-79
2022/01/26 05:21:05;;;;;;;24.63;17.93;;;0.20;99.90;;;;;;5079440;28;20209;-78
2022/01/26 05:23:32;;;;;;;25.40;17.07;;;0.30;99.90;;;;;;5092379;28;20304;-80
2022/01/26 05:25:59;;;;;;;24.00;16.57;;;0.30;99.90;;;;;;5092134;28;20295;-79
2022/01/26 05:28:26;;;;;;;22.73;17.30;;;0.40;99.90;;;;;;5092916;28;20228;-80
2022/01/26 05:30:53;;;;;;;24.73;17.13;;;0.40;99.90;;;;;;5092440;28;20269;-79
2022/01/26 05:33:23;;;;;;;27.90;17.83;;;0.40;99.90;;;;;;5092889;28;20685;-78
2022/01/26 05:35:52;;;;;;;30.83;19.23;;;0.30;99.90;;;;;;5092201;28;20209;-83
2022/01/26 05:38:19;;;;;;;24.27;16.07;;;0.30;99.90;;;;;;5093128;28;20278;-82
2022/01/26 05:40:46;;;;;;;25.90;16.60;;;0.30;99.90;;;;;;5079928;28;20206;-83
2022/01/26 05:43:15;;;;;;;24.73;18.23;;;0.30;99.90;;;;;;5072886;28;20723;-83
2022/01/26 05:45:43;;;;;;;22.80;17.13;;;0.40;99.90;;;;;;5071916;28;20225;-79
2022/01/26 05:48:12;;;;;;;22.47;16.30;;;0.30;99.90;;;;;;5073888;28;20292;-78
2022/01/26 05:50:49;;;;;;;23.57;17.23;;;0.30;99.90;;;;;;5086554;28;20196;-77
2022/01/26 05:53:20;;;;;;;21.33;16.20;;;0.30;99.90;;;;;;5074227;28;20216;-78
2022/01/26 05:55:49;;;;;;;23.37;16.73;;;0.30;99.90;;;;;;5091233;28;20208;-79
2022/01/26 05:58:16;;;;;;;22.83;17.13;;;0.30;99.90;;;;;;5086980;28;20205;-79
2022/01/26 06:00:43;;;;;;;26.67;17.33;;;0.30;99.90;;;;;;5091481;28;20198;-80
2022/01/26 06:03:10;;;;;;;21.43;15.70;;;0.30;99.90;;;;;;5092312;28;20278;-79
2022/01/26 06:05:37;;;;;;;20.90;15.63;;;0.30;99.90;;;;;;5092162;28;20230;-80
2022/01/26 06:08:05;;;;;;;23.27;15.63;;;0.30;99.90;;;;;;5091867;28;20672;-82
2022/01/26 06:10:33;;;;;;;22.70;13.47;;;0.30;99.90;;;;;;5090662;28;20733;-81
2022/01/26 06:13:00;;;;;;;26.70;17.10;;;0.30;99.90;;;;;;5091755;28;20209;-82
2022/01/26 06:15:27;;;;;;;23.57;15.73;;;0.20;99.90;;;;;;5091445;28;20644;-82
2022/01/26 06:17:54;;;;;;;25.47;17.03;;;0.10;99.90;;;;;;5092034;28;20205;-85
2022/01/26 06:20:22;;;;;;;22.67;17.10;;;0.10;99.90;;;;;;5091749;28;20201;-83
2022/01/26 06:22:49;;;;;;;27.07;18.37;;;0.10;99.90;;;;;;5091399;28;20262;-78
2022/01/26 06:25:16;;;;;;;22.50;16.03;;;0.20;99.90;;;;;;5090820;28;20256;-79
2022/01/26 06:27:45;;;;;;;31.87;19.97;;;0.20;99.90;;;;;;5078078;28;20739;-80
2022/01/26 06:30:13;;;;;;;25.90;18.63;;;0.20;99.90;;;;;;5091572;28;20245;-80
2022/01/26 06:32:40;;;;;;;32.53;19.77;;;0.20;99.90;;;;;;5090921;28;20205;-79
2022/01/26 06:35:09;;;;;;;27.83;17.27;;;0.20;99.90;;;;;;5091598;28;20205;-77
2022/01/26 06:37:36;;;;;;;25.67;17.77;;;0.20;99.90;;;;;;5078126;28;20200;-78
2022/01/26 06:40:05;;;;;;;34.87;19.30;;;0.10;99.90;;;;;;5091070;28;20232;-80
2022/01/26 06:42:39;;;;;;;23.67;16.90;;;0.00;99.90;;;;;;5091145;28;20201;-80
2022/01/26 06:45:16;;;;;;;26.33;16.33;;;-0.10;99.90;;;;;;5089355;28;20227;-80
2022/01/26 06:48:00;;;;;;;26.17;18.87;;;-0.10;99.90;;;;;;5077324;28;20655;-79
2022/01/26 06:50:28;;;;;;;32.43;18.33;;;-0.20;99.90;;;;;;5081226;28;20231;-80
2022/01/26 06:52:55;;;;;;;30.63;17.97;;;-0.10;99.90;;;;;;5086966;28;20209;-80
2022/01/26 06:55:22;;;;;;;24.27;16.77;;;0.00;99.90;;;;;;5091124;28;20209;-80
2022/01/26 06:57:49;;;;;;;25.23;16.73;;;0.00;99.90;;;;;;5090718;28;20337;-81
2022/01/26 07:00:18;;;;;;;27.27;17.30;;;0.00;99.90;;;;;;5090936;28;20201;-81
2022/01/26 07:02:45;;;;;;;25.63;17.70;;;0.10;99.90;;;;;;5089973;28;20215;-80
2022/01/26 07:05:13;;;;;;;26.90;17.37;;;0.10;99.90;;;;;;5090287;28;20648;-80
2022/01/26 07:07:41;;;;;;;25.00;17.13;;;0.10;99.90;;;;;;5090568;28;20210;-79
2022/01/26 07:10:09;;;;;;;23.07;17.17;;;0.00;99.90;;;;;;5091012;28;20254;-82
2022/01/26 07:12:37;;;;;;;29.30;18.03;;;-0.10;99.90;;;;;;5091116;28;20271;-81
2022/01/26 07:23:30;;;;;;;25.20;17.87;;;0.10;99.90;;;;;;5048836;28;20229;-84
2022/01/26 07:25:57;;;;;;;25.87;15.63;;;0.00;99.90;;;;;;5080851;28;20233;-84
2022/01/26 07:28:26;;;;;;;28.17;19.13;;;0.00;99.90;;;;;;5071689;28;20203;-83
2022/01/26 07:30:53;;;;;;;28.20;18.53;;;-0.10;99.90;;;;;;5084238;28;20625;-79
2022/01/26 07:33:22;;;;;;;25.10;17.67;;;-0.20;99.90;;;;;;5076971;28;20205;-80
2022/01/26 07:35:49;;;;;;;25.43;17.40;;;-0.30;99.90;;;;;;5089954;28;20209;-81
2022/01/26 07:38:16;;;;;;;25.90;18.90;;;-0.30;99.90;;;;;;5090480;28;20231;-81
2022/01/26 07:40:43;;;;;;;29.43;18.80;;;-0.30;99.90;;;;;;5090192;28;20308;-79
2022/01/26 07:43:10;;;;;;;24.23;17.27;;;-0.20;99.90;;;;;;5090147;28;20202;-80
2022/01/26 07:45:37;;;;;;;27.73;19.67;;;-0.10;99.90;;;;;;5080918;28;20740;-83
2022/01/26 07:48:04;;;;;;;29.10;17.77;;;0.60;99.90;;;;;;5086646;28;20209;-83
2022/01/26 07:50:33;;;;;;;29.97;19.43;;;1.00;1.00;;;;;;5089907;28;20702;-80
2022/01/26 07:53:01;;;;;;;24.37;16.93;;;0.70;1.00;;;;;;5090060;28;20205;-77
2022/01/26 07:55:28;;;;;;;25.67;17.37;;;1.20;1.00;;;;;;5083583;28;20230;-78
2022/01/26 07:57:56;;;;;;;20.63;16.17;;;1.00;1.00;;;;;;5077566;28;20213;-79
2022/01/26 08:00:24;;;;;;;25.17;14.93;;;0.90;1.00;;;;;;5086960;28;20197;-74
2022/01/26 08:02:51;;;;;;;25.83;15.73;;;1.00;1.00;;;;;;5082675;28;20631;-77
2022/01/26 08:05:21;;;;;;;23.07;16.97;;;1.40;1.00;;;;;;5084565;28;20716;-77
2022/01/26 08:07:50;;;;;;;29.27;17.53;;;1.50;1.00;;;;;;5076535;28;20214;-76
2022/01/26 08:10:17;;;;;;;23.17;17.07;;;2.30;1.00;;;;;;5069111;28;20232;-77
2022/01/26 08:12:44;;;;;;;25.67;17.53;;;1.60;1.00;;;;;;5088485;28;20627;-79
2022/01/26 08:15:11;;;;;;;23.57;15.13;;;1.60;1.00;;;;;;5090417;28;20642;-79
2022/01/26 08:17:39;;;;;;;23.20;16.30;;;2.10;1.00;;;;;;5075427;28;20248;-79
2022/01/26 08:20:08;;;;;;;22.10;17.17;;;2.30;1.00;;;;;;5074256;28;20204;-76
2022/01/26 08:22:35;;;;;;;24.37;14.90;;;3.20;1.00;;;;;;5091269;28;20220;-78
2022/01/26 08:25:04;;;;;;;20.50;14.83;;;2.70;1.00;;;;;;5092244;28;20213;-77
2022/01/26 08:27:39;;;;;;;21.03;14.33;;;2.40;1.00;;;;;;5082258;28;20208;-78
2022/01/26 08:30:09;;;;;;;21.37;14.03;;;2.20;1.00;;;;;;5094164;28;20234;-78
2022/01/26 08:32:37;;;;;;;22.10;15.13;;;2.10;1.00;;;;;;5075953;28;20577;-78
2022/01/26 08:35:04;;;;;;;20.00;15.13;;;2.00;1.00;;;;;;5079828;28;20618;-77
2022/01/26 08:37:31;;;;;;;21.00;15.90;;;2.10;1.00;;;;;;5082448;28;20668;-76
2022/01/26 08:39:58;;;;;;;18.40;14.60;;;2.30;1.00;;;;;;5093230;28;20267;-77
2022/01/26 08:42:27;;;;;;;23.27;14.73;;;2.40;1.00;;;;;;5086380;28;20206;-76
2022/01/26 08:44:54;;;;;;;17.47;14.13;;;2.60;1.00;;;;;;5092955;28;20559;-76
2022/01/26 08:47:21;;;;;;;26.53;15.47;;;2.90;1.00;;;;;;5093193;28;20201;-78
2022/01/26 08:49:48;;;;;;;22.80;14.67;;;3.10;1.00;;;;;;5090015;28;20881;-77
2022/01/26 08:52:15;;;;;;;25.30;16.17;;;3.10;1.00;;;;;;5085338;28;20262;-77
2022/01/26 08:54:42;;;;;;;21.63;12.97;;;3.50;1.00;;;;;;5084124;28;20259;-78
2022/01/26 08:57:10;;;;;;;17.20;13.10;;;3.50;1.00;;;;;;5092829;28;20213;-78
2022/01/26 08:59:40;;;;;;;19.63;14.27;;;4.00;1.00;;;;;;5093280;27;20334;-79
2022/01/26 09:02:08;;;;;;;20.80;13.13;;;4.60;1.00;;;;;;5093236;28;20201;-78
2022/01/26 09:04:35;;;;;;;21.40;13.20;;;4.40;1.00;;;;;;5093405;28;20608;-78
2022/01/26 09:07:03;;;;;;;19.20;12.80;;;4.70;1.00;;;;;;5091502;28;20761;-79
2022/01/26 09:09:41;;;;;;;16.80;11.87;;;5.70;1.00;;;;;;5092430;28;20208;-79
2022/01/26 09:12:09;;;;;;;17.20;11.73;;;6.80;1.00;;;;;;5090268;28;20237;-78
2022/01/26 09:14:37;;;;;;;16.77;13.23;;;7.90;1.00;;;;;;5093542;28;20222;-78
2022/01/26 09:17:06;;;;;;;14.07;11.27;;;8.30;1.00;;;;;;5093407;28;20206;-78
2022/01/26 09:19:33;;;;;;;17.97;12.03;;;8.10;1.00;;;;;;5093200;28;20224;-77
2022/01/26 09:22:03;;;;;;;15.17;11.67;;;8.80;1.00;;;;;;5085367;28;20209;-78
2022/01/26 09:24:32;;;;;;;16.50;11.53;;;9.50;1.00;;;;;;5072616;28;20692;-82
2022/01/26 09:26:59;;;;;;;15.60;11.53;;;8.70;1.00;;;;;;5072685;28;20890;-83
2022/01/26 09:29:26;;;;;;;14.17;11.20;;;8.50;1.00;;;;;;5073281;28;20259;-83
2022/01/26 09:31:55;;;;;;;15.47;11.57;;;9.20;1.00;;;;;;5072514;28;20198;-81
2022/01/26 09:34:24;;;;;;;17.50;11.53;;;10.40;1.00;;;;;;5092137;28;20205;-77
2022/01/26 09:36:51;;;;;;;19.47;11.23;;;10.70;1.00;;;;;;5092328;28;20209;-78
2022/01/26 09:39:20;;;;;;;14.73;13.10;;;11.30;1.00;;;;;;5084265;28;20282;-78
2022/01/26 09:41:48;;;;;;;16.67;11.67;;;12.20;1.00;;;;;;5076668;28;20211;-78
2022/01/26 09:44:16;;;;;;;15.70;11.70;;;12.10;99.90;;;;;;5072040;28;20673;-78
2022/01/26 09:46:44;;;;;;;14.60;11.73;;;10.10;99.90;;;;;;5075990;28;20579;-78
2022/01/26 09:49:16;;;;;;;15.67;11.87;;;9.40;1.00;;;;;;5092222;28;20737;-78
2022/01/26 09:51:48;;;;;;;15.70;11.70;;;10.10;1.00;;;;;;5088637;28;20773;-78
2022/01/26 09:54:17;;;;;;;14.27;11.13;;;10.70;1.00;;;;;;5082715;28;20209;-77
2022/01/26 09:56:46;;;;;;;15.03;12.37;;;11.90;99.90;;;;;;5078595;28;20198;-77
2022/01/26 09:59:14;;;;;;;15.77;12.77;;;13.10;99.90;;;;;;5072835;28;20263;-77
2022/01/26 10:01:43;;;;;;;17.67;14.73;;;13.20;99.90;;;;;;5087847;28;20645;-78
2022/01/26 10:04:22;;;;;;;19.20;12.37;;;14.10;99.90;;;;;;5081187;28;20202;-77
2022/01/26 10:07:05;;;;;;;19.73;12.03;;;14.70;99.90;;;;;;5078081;28;20661;-77
2022/01/26 10:17:50;;;;;;;15.85;11.88;;;13.40;99.90;;;;;;5085807;28;20204;-78
2022/01/26 10:20:19;;;;;;;19.00;13.00;;;15.70;99.90;;;;;;5082224;28;20263;-78
2022/01/26 10:22:46;;;;;;;17.52;13.32;;;16.50;99.90;;;;;;5087894;28;20661;-78
2022/01/26 10:25:16;;;;;;;18.80;14.30;;;15.30;99.90;;;;;;5091541;28;20213;-77
2022/01/26 10:27:44;;;;;;;17.48;14.75;;;14.50;99.90;;;;;;5087837;28;20238;-78
2022/01/26 10:30:13;;;;;;;19.02;14.00;;;14.30;99.90;;;;;;5085122;28;20631;-77
2022/01/26 10:32:42;;;;;;;21.80;16.17;;;13.80;99.90;;;;;;5083259;28;20270;-78
2022/01/26 10:35:10;;;;;;;21.63;15.00;;;15.30;99.90;;;;;;5085189;28;20206;-77
2022/01/26 10:37:41;;;;;;;18.30;13.95;;;15.30;99.90;;;;;;5077443;28;20250;-78
2022/01/26 10:40:16;;;;;;;20.10;13.70;;;10.60;99.90;;;;;;5090068;28;20205;-77
2022/01/26 10:42:57;;;;;;;24.20;15.47;;;8.50;99.90;;;;;;5090332;28;20734;-77
2022/01/26 10:45:55;;;;;;;22.27;16.10;;;7.60;1.00;;;;;;5084040;28;20210;-78
2022/01/26 10:48:29;;;;;;;18.17;14.07;;;6.70;1.00;;;;;;5071070;28;20198;-76
2022/01/26 10:54:11;;;;;;;25.07;16.57;;;6.80;1.00;;;;;;5075838;28;20210;-77
2022/01/26 10:56:40;;;;;;;23.50;16.30;;;6.80;1.00;;;;;;5078781;28;20728;-77
2022/01/26 10:59:07;;;;;;;21.23;18.07;;;7.00;1.00;;;;;;5079732;28;20288;-77
2022/01/26 11:01:37;;;;;;;36.90;22.60;;;6.90;1.00;;;;;;5089249;28;20676;-79
2022/01/26 11:04:04;;;;;;;28.70;18.50;;;7.20;1.00;;;;;;5086346;28;20205;-79
2022/01/26 11:06:32;;;;;;;24.03;16.57;;;7.30;1.00;;;;;;5090894;28;20799;-80
2022/01/26 11:09:07;;;;;;;21.53;16.37;;;7.30;1.00;;;;;;5078599;28;20244;-77
2022/01/26 11:11:35;;;;;;;25.27;17.47;;;7.10;1.00;;;;;;5086046;28;20244;-79
2022/01/26 11:14:14;;;;;;;23.70;16.87;;;7.10;1.00;;;;;;5089701;28;20206;-79
2022/01/26 11:16:49;;;;;;;26.93;18.37;;;7.30;1.00;;;;;;5075759;28;20229;-78
2022/01/26 11:19:16;;;;;;;24.37;16.87;;;7.50;1.00;;;;;;5083860;28;20201;-79
2022/01/26 11:21:43;;;;;;;26.40;17.23;;;7.50;1.00;;;;;;5087379;28;20737;-79
2022/01/26 11:24:18;;;;;;;25.70;18.33;;;7.50;1.00;;;;;;5083994;28;20222;-78
2022/01/26 11:26:46;;;;;;;30.50;20.33;;;7.60;1.00;;;;;;5074512;28;20241;-78
2022/01/26 11:29:20;;;;;;;26.63;19.83;;;7.80;1.00;;;;;;5079946;28;20209;-78
2022/01/26 11:31:47;;;;;;;25.00;18.13;;;7.80;1.00;;;;;;5076327;28;20209;-77
2022/01/26 11:34:18;;;;;;;27.23;18.63;;;7.70;1.00;;;;;;5070861;28;20244;-78
2022/01/26 11:36:48;;;;;;;24.70;19.37;;;7.80;1.00;;;;;;5070136;28;20619;-77
2022/01/26 11:42:25;;;;;;;25.40;17.80;;;8.10;1.00;;;;;;5070008;28;20350;-78
2022/01/26 11:45:08;;;;;;;22.53;15.57;;;8.20;1.00;;;;;;5070231;28;20206;-78
2022/01/26 11:47:37;;;;;;;32.83;17.73;;;8.00;1.00;;;;;;5071011;28;20237;-77
2022/01/26 11:50:12;;;;;;;25.87;18.13;;;8.10;1.00;;;;;;5074726;28;20201;-77
2022/01/26 11:52:40;;;;;;;20.97;15.93;;;8.20;1.00;;;;;;5074292;28;20255;-77
2022/01/26 11:55:32;;;;;;;23.63;16.43;;;8.40;1.00;;;;;;5074347;28;20213;-77
2022/01/26 11:58:11;;;;;;;25.00;18.03;;;8.50;1.00;;;;;;5074080;28;20510;-78
2022/01/26 12:00:45;;;;;;;24.33;16.43;;;8.50;1.00;;;;;;5074313;28;20202;-77
2022/01/26 12:03:28;;;;;;;18.97;15.10;;;8.60;1.00;;;;;;5074306;28;20214;-79
2022/01/26 12:05:57;;;;;;;23.50;17.27;;;8.50;1.00;;;;;;5073779;28;20202;-77
2022/01/26 12:08:33;;;;;;;24.57;15.67;;;8.60;1.00;;;;;;5074207;28;20731;-77
2022/01/26 12:11:02;;;;;;;20.97;15.23;;;8.70;1.00;;;;;;5085179;28;20205;-77
2022/01/26 12:13:31;;;;;;;21.33;14.43;;;8.80;1.00;;;;;;5079487;28;20564;-77
2022/01/26 12:16:06;;;;;;;18.90;14.80;;;8.90;1.00;;;;;;5073570;28;20602;-77
2022/01/26 12:18:37;;;;;;;22.10;13.83;;;8.90;1.00;;;;;;5074162;28;20672;-77
2022/01/26 12:35:15;;;;;;;20.93;15.07;;;9.10;1.00;;;;;;5071666;28;20252;-77
2022/01/26 12:37:54;;;;;;;17.50;12.70;;;9.10;1.00;;;;;;5073188;28;20206;-77
2022/01/26 12:43:18;;;;;;;16.13;13.10;;;8.90;1.00;;;;;;5080290;28;20258;-79
2022/01/26 12:45:47;;;;;;;19.93;15.33;;;9.10;1.00;;;;;;5090741;28;20263;-77
2022/01/26 12:48:14;;;;;;;22.13;15.30;;;9.10;1.00;;;;;;5081738;28;20294;-78
2022/01/26 12:50:43;;;;;;;19.57;13.37;;;9.30;1.00;;;;;;5092472;28;20718;-78
2022/01/26 12:53:10;;;;;;;18.93;14.37;;;9.30;1.00;;;;;;5093043;28;20209;-78
2022/01/26 12:55:39;;;;;;;18.77;12.53;;;9.30;1.00;;;;;;5093053;28;20217;-77
2022/01/26 12:58:07;;;;;;;25.67;13.77;;;9.30;1.00;;;;;;5093616;28;20205;-78
2022/01/26 13:00:47;;;;;;;19.13;15.47;;;9.50;1.00;;;;;;5090396;28;20210;-78
2022/01/26 13:03:19;;;;;;;18.23;13.90;;;9.60;1.00;;;;;;5078769;28;20687;-78
2022/01/26 13:05:47;;;;;;;19.63;14.20;;;9.50;1.00;;;;;;5079102;28;20202;-78
2022/01/26 13:08:14;;;;;;;21.73;15.10;;;9.50;1.00;;;;;;5080520;28;20662;-78
2022/01/26 13:10:41;;;;;;;17.97;13.97;;;9.60;1.00;;;;;;5085744;28;20270;-79
2022/01/26 13:13:19;;;;;;;23.20;14.67;;;9.50;1.00;;;;;;5092913;28;20205;-77
2022/01/26 13:15:54;;;;;;;20.57;14.00;;;9.50;1.00;;;;;;5086563;28;20248;-78
2022/01/26 13:18:47;;;;;;;19.73;14.97;;;9.60;1.00;;;;;;5083807;28;20250;-77
2022/01/26 13:24:35;;;;;;;21.37;14.50;;;9.60;1.00;;;;;;5068503;28;20214;-78
2022/01/26 13:27:11;;;;;;;20.43;15.47;;;9.60;1.00;;;;;;5080598;28;20332;-78
2022/01/26 13:29:54;;;;;;;24.60;16.60;;;9.70;1.00;;;;;;5085561;28;20202;-78
2022/01/26 13:33:02;;;;;;;19.97;15.77;;;9.70;1.00;;;;;;5078311;28;20209;-78
2022/01/26 13:35:44;;;;;;;17.70;13.43;;;9.70;1.00;;;;;;5092077;28;20205;-77
2022/01/26 13:38:21;;;;;;;23.60;15.43;;;9.80;1.00;;;;;;5100947;28;20624;-78
2022/01/26 13:41:06;;;;;;;20.50;13.77;;;9.90;1.00;;;;;;5080343;28;20281;-77
2022/01/26 13:49:32;;;;;;;20.30;16.17;;;9.90;1.00;;;;;;5089956;28;20213;-78
2022/01/26 14:00:22;;;;;;;19.07;13.73;;;10.00;1.00;;;;;;5072096;28;20209;-79
2022/01/26 14:02:55;;;;;;;18.20;12.97;;;10.00;1.00;;;;;;5087754;28;20589;-78
2022/01/26 14:05:24;;;;;;;19.83;13.60;;;10.00;1.00;;;;;;5081365;28;20206;-78
2022/01/26 14:07:54;;;;;;;20.23;15.20;;;10.00;1.00;;;;;;5083609;28;20291;-77
2022/01/26 14:10:22;;;;;;;17.03;12.80;;;10.00;1.00;;;;;;5082238;28;20206;-79
2022/01/26 14:12:50;;;;;;;20.30;13.57;;;10.00;1.00;;;;;;5079222;28;20260;-78
2022/01/26 14:15:22;;;;;;;32.03;15.03;;;10.00;1.00;;;;;;5108097;27;20206;-79
2022/01/26 14:18:07;;;;;;;19.50;14.57;;;10.00;1.00;;;;;;5088280;28;20224;-79
2022/01/26 14:26:11;;;;;;;24.60;13.83;;;10.10;1.00;;;;;;5083257;28;20650;-78
2022/01/26 14:28:37;;;;;;;19.67;14.23;;;10.20;1.00;;;;;;5083415;28;20594;-78
2022/01/26 14:34:06;;;;;;;19.73;13.53;;;10.20;1.00;;;;;;5056031;28;20209;-79
2022/01/26 14:36:52;;;;;;;15.77;11.77;;;10.20;1.00;;;;;;5090349;28;20212;-78
2022/01/26 14:55:57;;;;;;;13.80;10.23;;;10.00;1.00;;;;;;5090578;28;20220;-78
2022/01/26 15:34:17;;;;;;;15.40;9.53;;;9.70;1.00;;;;;;5090550;28;20250;-77
2022/01/26 15:42:29;;;;;;;13.73;10.80;;;9.50;1.00;;;;;;5090327;28;20651;-78
2022/01/26 15:48:42;;;;;;;18.13;11.23;;;9.40;1.00;;;;;;5089857;28;20695;-78
2022/01/26 15:50:44;;;;;;;14.17;10.43;;;9.50;1.00;;;;;;5090921;28;20208;-78
2022/01/26 15:53:18;;;;;;;19.27;10.57;;;9.40;1.00;;;;;;5090328;28;20209;-77
2022/01/26 15:58:44;;;;;;;15.47;11.13;;;9.20;1.00;;;;;;5090554;28;20203;-78